Terminal Aerodrome Forecast
Issued by NWS

Home | Current Version | Previous Version | Text Only | Print | Product List | Glossary On
Versions: 1 2 3 4 5 6 7 8 9 10 11 12 13 14 15 16 17 18 19 20
000
FTAK31 PANC 220541
TAFAEN
TAF
PAEN 220541Z 2206/2306 VRB03KT P6SM VCSH SCT025 OVC040
      TEMPO 2206/2209 5SM -SHSN BR FEW010 BKN025
     FM221200 03003KT P6SM VCFG SCT003 BKN015
     FM222000 36005KT P6SM SCT025 BKN045=

USA.gov is the U.S. government's official web portal to all federal, state and local government web resources and services.